sensor_id;sensor_type;location;lat;lon;timestamp;P1;durP1;ratioP1;P2;durP2;ratioP2
13463;SDS011;6804;48.774;9.174;2023-04-25T00:01:16;1.83;;;1.70;;
13463;SDS011;6804;48.774;9.174;2023-04-25T00:03:43;2.07;;;1.80;;
13463;SDS011;6804;48.774;9.174;2023-04-25T00:06:11;2.93;;;1.50;;
13463;SDS011;6804;48.774;9.174;2023-04-25T00:08:39;2.37;;;1.80;;
13463;SDS011;6804;48.774;9.174;2023-04-25T00:11:07;3.73;;;2.10;;
13463;SDS011;6804;48.774;9.174;2023-04-25T00:13:36;2.70;;;2.03;;
13463;SDS011;6804;48.774;9.174;2023-04-25T00:16:06;2.30;;;1.67;;
13463;SDS011;6804;48.774;9.174;2023-04-25T00:18:33;1.70;;;1.60;;
13463;SDS011;6804;48.774;9.174;2023-04-25T00:21:01;2.03;;;1.40;;
13463;SDS011;6804;48.774;9.174;2023-04-25T00:23:34;1.70;;;1.40;;
13463;SDS011;6804;48.774;9.174;2023-04-25T00:26:04;1.87;;;1.50;;
13463;SDS011;6804;48.774;9.174;2023-04-25T00:28:32;2.70;;;1.30;;
13463;SDS011;6804;48.774;9.174;2023-04-25T00:31:03;1.57;;;1.17;;
13463;SDS011;6804;48.774;9.174;2023-04-25T00:33:30;1.50;;;1.20;;
13463;SDS011;6804;48.774;9.174;2023-04-25T00:36:01;2.10;;;1.40;;
13463;SDS011;6804;48.774;9.174;2023-04-25T00:38:29;1.73;;;1.33;;
13463;SDS011;6804;48.774;9.174;2023-04-25T00:40:56;2.17;;;1.40;;
13463;SDS011;6804;48.774;9.174;2023-04-25T00:43:24;2.00;;;1.40;;
13463;SDS011;6804;48.774;9.174;2023-04-25T00:45:52;1.37;;;1.27;;
13463;SDS011;6804;48.774;9.174;2023-04-25T00:48:27;1.90;;;1.70;;
13463;SDS011;6804;48.774;9.174;2023-04-25T00:50:54;2.17;;;1.50;;
13463;SDS011;6804;48.774;9.174;2023-04-25T00:53:24;2.23;;;1.40;;
13463;SDS011;6804;48.774;9.174;2023-04-25T00:55:55;1.47;;;1.37;;
13463;SDS011;6804;48.774;9.174;2023-04-25T00:58:25;1.50;;;1.30;;
13463;SDS011;6804;48.774;9.174;2023-04-25T01:00:53;1.87;;;1.53;;
13463;SDS011;6804;48.774;9.174;2023-04-25T01:03:21;2.07;;;1.90;;
13463;SDS011;6804;48.774;9.174;2023-04-25T01:05:51;2.13;;;1.20;;
13463;SDS011;6804;48.774;9.174;2023-04-25T01:08:24;2.50;;;1.70;;
13463;SDS011;6804;48.774;9.174;2023-04-25T01:10:52;1.50;;;1.40;;
13463;SDS011;6804;48.774;9.174;2023-04-25T01:13:22;3.23;;;1.60;;
13463;SDS011;6804;48.774;9.174;2023-04-25T01:15:51;2.00;;;1.80;;
13463;SDS011;6804;48.774;9.174;2023-04-25T01:18:19;2.50;;;1.60;;
13463;SDS011;6804;48.774;9.174;2023-04-25T01:20:47;2.40;;;1.57;;
13463;SDS011;6804;48.774;9.174;2023-04-25T01:23:20;2.03;;;1.77;;
13463;SDS011;6804;48.774;9.174;2023-04-25T01:25:48;2.53;;;1.70;;
13463;SDS011;6804;48.774;9.174;2023-04-25T01:28:16;4.43;;;1.80;;
13463;SDS011;6804;48.774;9.174;2023-04-25T01:30:44;2.70;;;1.57;;
13463;SDS011;6804;48.774;9.174;2023-04-25T01:33:13;1.93;;;1.63;;
13463;SDS011;6804;48.774;9.174;2023-04-25T01:35:41;3.30;;;1.30;;
13463;SDS011;6804;48.774;9.174;2023-04-25T01:38:09;1.80;;;1.40;;
13463;SDS011;6804;48.774;9.174;2023-04-25T01:40:39;2.37;;;1.63;;
13463;SDS011;6804;48.774;9.174;2023-04-25T01:43:07;2.40;;;1.70;;
13463;SDS011;6804;48.774;9.174;2023-04-25T01:45:36;2.47;;;1.70;;
13463;SDS011;6804;48.774;9.174;2023-04-25T01:48:06;2.20;;;1.60;;
13463;SDS011;6804;48.774;9.174;2023-04-25T01:50:36;1.80;;;1.57;;
13463;SDS011;6804;48.774;9.174;2023-04-25T01:53:04;1.90;;;1.57;;
13463;SDS011;6804;48.774;9.174;2023-04-25T01:55:32;2.13;;;1.70;;
13463;SDS011;6804;48.774;9.174;2023-04-25T01:58:12;1.70;;;1.50;;
13463;SDS011;6804;48.774;9.174;2023-04-25T02:00:39;2.13;;;1.40;;
13463;SDS011;6804;48.774;9.174;2023-04-25T02:03:06;3.03;;;1.53;;
13463;SDS011;6804;48.774;9.174;2023-04-25T02:05:34;2.53;;;1.43;;
13463;SDS011;6804;48.774;9.174;2023-04-25T02:08:03;2.33;;;1.30;;
13463;SDS011;6804;48.774;9.174;2023-04-25T02:10:31;2.13;;;1.53;;
13463;SDS011;6804;48.774;9.174;2023-04-25T02:13:00;3.13;;;1.50;;
13463;SDS011;6804;48.774;9.174;2023-04-25T02:15:27;1.90;;;1.70;;
13463;SDS011;6804;48.774;9.174;2023-04-25T02:18:00;1.80;;;1.50;;
13463;SDS011;6804;48.774;9.174;2023-04-25T02:20:28;1.87;;;1.60;;
13463;SDS011;6804;48.774;9.174;2023-04-25T02:22:56;2.30;;;1.60;;
13463;SDS011;6804;48.774;9.174;2023-04-25T02:25:27;1.83;;;1.67;;
13463;SDS011;6804;48.774;9.174;2023-04-25T02:27:54;2.80;;;1.70;;
13463;SDS011;6804;48.774;9.174;2023-04-25T02:30:27;2.33;;;1.60;;
13463;SDS011;6804;48.774;9.174;2023-04-25T02:32:55;3.00;;;1.90;;
13463;SDS011;6804;48.774;9.174;2023-04-25T02:35:24;2.33;;;1.60;;
13463;SDS011;6804;48.774;9.174;2023-04-25T02:37:58;2.17;;;1.40;;
13463;SDS011;6804;48.774;9.174;2023-04-25T02:40:28;5.33;;;1.53;;
13463;SDS011;6804;48.774;9.174;2023-04-25T02:42:55;3.33;;;1.70;;
13463;SDS011;6804;48.774;9.174;2023-04-25T02:45:22;2.13;;;1.40;;
13463;SDS011;6804;48.774;9.174;2023-04-25T02:47:53;1.83;;;1.60;;
13463;SDS011;6804;48.774;9.174;2023-04-25T02:50:20;2.60;;;1.30;;
13463;SDS011;6804;48.774;9.174;2023-04-25T02:52:48;2.10;;;1.67;;
13463;SDS011;6804;48.774;9.174;2023-04-25T02:55:18;1.93;;;1.50;;
13463;SDS011;6804;48.774;9.174;2023-04-25T02:57:45;2.07;;;1.50;;
13463;SDS011;6804;48.774;9.174;2023-04-25T03:00:13;2.67;;;1.50;;
13463;SDS011;6804;48.774;9.174;2023-04-25T03:02:43;1.83;;;1.60;;
13463;SDS011;6804;48.774;9.174;2023-04-25T03:05:12;2.53;;;1.50;;
13463;SDS011;6804;48.774;9.174;2023-04-25T03:07:40;1.73;;;1.63;;
13463;SDS011;6804;48.774;9.174;2023-04-25T03:10:08;2.23;;;1.40;;
13463;SDS011;6804;48.774;9.174;2023-04-25T03:12:36;1.63;;;1.40;;
13463;SDS011;6804;48.774;9.174;2023-04-25T03:15:04;2.13;;;1.60;;
13463;SDS011;6804;48.774;9.174;2023-04-25T03:17:35;3.03;;;1.67;;
13463;SDS011;6804;48.774;9.174;2023-04-25T03:20:03;3.63;;;1.80;;
13463;SDS011;6804;48.774;9.174;2023-04-25T03:22:40;2.27;;;1.43;;
13463;SDS011;6804;48.774;9.174;2023-04-25T03:25:07;2.50;;;1.70;;
13463;SDS011;6804;48.774;9.174;2023-04-25T03:27:35;2.93;;;1.60;;
13463;SDS011;6804;48.774;9.174;2023-04-25T03:30:02;4.00;;;1.83;;
13463;SDS011;6804;48.774;9.174;2023-04-25T03:32:30;1.50;;;1.40;;
13463;SDS011;6804;48.774;9.174;2023-04-25T03:35:00;1.60;;;1.47;;
13463;SDS011;6804;48.774;9.174;2023-04-25T03:37:28;1.67;;;1.57;;
13463;SDS011;6804;48.774;9.174;2023-04-25T03:40:00;2.83;;;1.50;;
13463;SDS011;6804;48.774;9.174;2023-04-25T03:42:29;2.17;;;1.50;;
13463;SDS011;6804;48.774;9.174;2023-04-25T03:44:56;2.27;;;1.53;;
13463;SDS011;6804;48.774;9.174;2023-04-25T03:47:24;2.37;;;1.40;;
13463;SDS011;6804;48.774;9.174;2023-04-25T03:49:52;2.20;;;1.50;;
13463;SDS011;6804;48.774;9.174;2023-04-25T03:52:22;4.00;;;1.93;;
13463;SDS011;6804;48.774;9.174;2023-04-25T03:54:52;2.03;;;1.50;;
13463;SDS011;6804;48.774;9.174;2023-04-25T03:57:20;2.57;;;1.57;;
13463;SDS011;6804;48.774;9.174;2023-04-25T03:59:48;2.67;;;1.40;;
13463;SDS011;6804;48.774;9.174;2023-04-25T04:02:15;1.63;;;1.40;;
13463;SDS011;6804;48.774;9.174;2023-04-25T04:04:42;1.73;;;1.40;;
13463;SDS011;6804;48.774;9.174;2023-04-25T04:07:09;2.27;;;1.57;;
13463;SDS011;6804;48.774;9.174;2023-04-25T04:09:39;2.17;;;1.60;;
13463;SDS011;6804;48.774;9.174;2023-04-25T04:12:06;3.30;;;1.53;;
13463;SDS011;6804;48.774;9.174;2023-04-25T04:14:35;2.50;;;1.70;;
13463;SDS011;6804;48.774;9.174;2023-04-25T04:17:02;1.53;;;1.40;;
13463;SDS011;6804;48.774;9.174;2023-04-25T04:19:31;2.53;;;1.60;;
13463;SDS011;6804;48.774;9.174;2023-04-25T04:22:01;2.53;;;1.60;;
13463;SDS011;6804;48.774;9.174;2023-04-25T04:24:28;3.30;;;2.00;;
13463;SDS011;6804;48.774;9.174;2023-04-25T04:26:56;1.77;;;1.60;;
13463;SDS011;6804;48.774;9.174;2023-04-25T04:29:24;3.20;;;1.77;;
13463;SDS011;6804;48.774;9.174;2023-04-25T04:31:52;1.60;;;1.50;;
13463;SDS011;6804;48.774;9.174;2023-04-25T04:34:20;2.27;;;1.50;;
13463;SDS011;6804;48.774;9.174;2023-04-25T04:36:49;2.67;;;1.70;;
13463;SDS011;6804;48.774;9.174;2023-04-25T04:39:17;2.20;;;1.93;;
13463;SDS011;6804;48.774;9.174;2023-04-25T04:41:45;2.37;;;2.00;;
13463;SDS011;6804;48.774;9.174;2023-04-25T04:44:13;2.70;;;1.87;;
13463;SDS011;6804;48.774;9.174;2023-04-25T04:46:40;2.40;;;2.00;;
13463;SDS011;6804;48.774;9.174;2023-04-25T04:49:13;2.23;;;1.93;;
13463;SDS011;6804;48.774;9.174;2023-04-25T04:51:41;3.10;;;1.80;;
13463;SDS011;6804;48.774;9.174;2023-04-25T04:54:09;2.93;;;1.90;;
13463;SDS011;6804;48.774;9.174;2023-04-25T04:56:37;2.20;;;1.60;;
13463;SDS011;6804;48.774;9.174;2023-04-25T04:59:07;2.47;;;1.43;;
13463;SDS011;6804;48.774;9.174;2023-04-25T05:01:37;2.47;;;1.80;;
13463;SDS011;6804;48.774;9.174;2023-04-25T05:04:05;2.37;;;1.80;;
13463;SDS011;6804;48.774;9.174;2023-04-25T05:06:34;7.10;;;2.07;;
13463;SDS011;6804;48.774;9.174;2023-04-25T05:09:02;3.37;;;2.13;;
13463;SDS011;6804;48.774;9.174;2023-04-25T05:11:32;3.13;;;1.90;;
13463;SDS011;6804;48.774;9.174;2023-04-25T05:14:03;3.20;;;2.00;;
13463;SDS011;6804;48.774;9.174;2023-04-25T05:16:30;3.80;;;2.00;;
13463;SDS011;6804;48.774;9.174;2023-04-25T05:18:58;5.10;;;2.40;;
13463;SDS011;6804;48.774;9.174;2023-04-25T05:21:31;4.03;;;2.20;;
13463;SDS011;6804;48.774;9.174;2023-04-25T05:24:01;3.00;;;2.00;;
13463;SDS011;6804;48.774;9.174;2023-04-25T05:26:28;4.47;;;2.10;;
13463;SDS011;6804;48.774;9.174;2023-04-25T05:28:56;5.87;;;2.23;;
13463;SDS011;6804;48.774;9.174;2023-04-25T05:31:24;4.80;;;2.50;;
13463;SDS011;6804;48.774;9.174;2023-04-25T05:33:51;3.20;;;2.30;;
13463;SDS011;6804;48.774;9.174;2023-04-25T05:36:19;2.60;;;2.00;;
13463;SDS011;6804;48.774;9.174;2023-04-25T05:38:50;3.03;;;2.37;;
13463;SDS011;6804;48.774;9.174;2023-04-25T05:41:22;3.83;;;2.77;;
13463;SDS011;6804;48.774;9.174;2023-04-25T05:43:49;3.70;;;2.43;;
13463;SDS011;6804;48.774;9.174;2023-04-25T05:46:17;3.10;;;2.20;;
13463;SDS011;6804;48.774;9.174;2023-04-25T05:48:45;4.27;;;2.23;;
13463;SDS011;6804;48.774;9.174;2023-04-25T05:51:12;2.53;;;2.20;;
13463;SDS011;6804;48.774;9.174;2023-04-25T05:53:43;2.57;;;2.37;;
13463;SDS011;6804;48.774;9.174;2023-04-25T05:56:13;2.63;;;1.97;;
13463;SDS011;6804;48.774;9.174;2023-04-25T05:58:42;3.87;;;2.00;;
13463;SDS011;6804;48.774;9.174;2023-04-25T06:01:10;2.10;;;1.90;;
13463;SDS011;6804;48.774;9.174;2023-04-25T06:03:44;2.20;;;1.90;;
13463;SDS011;6804;48.774;9.174;2023-04-25T06:06:14;3.90;;;1.90;;
13463;SDS011;6804;48.774;9.174;2023-04-25T06:08:42;2.00;;;1.70;;
13463;SDS011;6804;48.774;9.174;2023-04-25T06:11:10;2.30;;;1.63;;
13463;SDS011;6804;48.774;9.174;2023-04-25T06:13:42;2.37;;;1.90;;
13463;SDS011;6804;48.774;9.174;2023-04-25T06:16:13;2.07;;;1.87;;
13463;SDS011;6804;48.774;9.174;2023-04-25T06:18:41;2.67;;;1.80;;
13463;SDS011;6804;48.774;9.174;2023-04-25T06:21:11;2.10;;;1.90;;
13463;SDS011;6804;48.774;9.174;2023-04-25T06:23:43;2.60;;;2.10;;
13463;SDS011;6804;48.774;9.174;2023-04-25T06:26:14;2.13;;;1.93;;
13463;SDS011;6804;48.774;9.174;2023-04-25T06:28:43;2.23;;;2.03;;
13463;SDS011;6804;48.774;9.174;2023-04-25T06:31:13;2.10;;;1.90;;
13463;SDS011;6804;48.774;9.174;2023-04-25T06:33:45;2.30;;;2.00;;
13463;SDS011;6804;48.774;9.174;2023-04-25T06:36:13;2.10;;;1.90;;
13463;SDS011;6804;48.774;9.174;2023-04-25T06:38:41;2.60;;;2.30;;
13463;SDS011;6804;48.774;9.174;2023-04-25T06:41:09;2.83;;;1.73;;
13463;SDS011;6804;48.774;9.174;2023-04-25T06:43:36;2.43;;;2.20;;
13463;SDS011;6804;48.774;9.174;2023-04-25T06:46:05;3.03;;;2.03;;
13463;SDS011;6804;48.774;9.174;2023-04-25T06:48:36;2.43;;;1.93;;
13463;SDS011;6804;48.774;9.174;2023-04-25T06:51:03;2.50;;;2.30;;
13463;SDS011;6804;48.774;9.174;2023-04-25T06:53:31;2.37;;;2.10;;
13463;SDS011;6804;48.774;9.174;2023-04-25T06:55:59;2.23;;;2.03;;
13463;SDS011;6804;48.774;9.174;2023-04-25T06:58:26;2.50;;;2.20;;
13463;SDS011;6804;48.774;9.174;2023-04-25T07:00:56;2.63;;;2.20;;
13463;SDS011;6804;48.774;9.174;2023-04-25T07:03:25;3.83;;;2.60;;
13463;SDS011;6804;48.774;9.174;2023-04-25T07:05:52;4.70;;;3.40;;
13463;SDS011;6804;48.774;9.174;2023-04-25T07:08:20;4.03;;;3.07;;
13463;SDS011;6804;48.774;9.174;2023-04-25T07:10:48;2.57;;;2.00;;
13463;SDS011;6804;48.774;9.174;2023-04-25T07:13:15;3.10;;;2.10;;
13463;SDS011;6804;48.774;9.174;2023-04-25T07:15:45;2.50;;;2.30;;
13463;SDS011;6804;48.774;9.174;2023-04-25T07:18:13;3.07;;;2.30;;
13463;SDS011;6804;48.774;9.174;2023-04-25T07:20:43;3.63;;;2.47;;
13463;SDS011;6804;48.774;9.174;2023-04-25T07:23:13;3.60;;;2.80;;
13463;SDS011;6804;48.774;9.174;2023-04-25T07:25:41;3.07;;;2.20;;
13463;SDS011;6804;48.774;9.174;2023-04-25T07:28:11;3.30;;;2.50;;
13463;SDS011;6804;48.774;9.174;2023-04-25T07:30:38;3.60;;;2.33;;
13463;SDS011;6804;48.774;9.174;2023-04-25T07:33:09;11.47;;;2.90;;
13463;SDS011;6804;48.774;9.174;2023-04-25T07:35:39;3.50;;;3.03;;
13463;SDS011;6804;48.774;9.174;2023-04-25T07:38:08;3.23;;;2.87;;
13463;SDS011;6804;48.774;9.174;2023-04-25T07:40:35;4.77;;;2.70;;
13463;SDS011;6804;48.774;9.174;2023-04-25T07:43:03;3.00;;;2.70;;
13463;SDS011;6804;48.774;9.174;2023-04-25T07:45:31;15.27;;;3.00;;
13463;SDS011;6804;48.774;9.174;2023-04-25T07:47:59;11.97;;;3.30;;
13463;SDS011;6804;48.774;9.174;2023-04-25T07:50:28;15.97;;;3.57;;
13463;SDS011;6804;48.774;9.174;2023-04-25T07:52:56;3.17;;;2.83;;
13463;SDS011;6804;48.774;9.174;2023-04-25T07:55:31;13.03;;;3.50;;
13463;SDS011;6804;48.774;9.174;2023-04-25T07:57:58;5.87;;;2.80;;
13463;SDS011;6804;48.774;9.174;2023-04-25T08:00:25;4.60;;;2.50;;
13463;SDS011;6804;48.774;9.174;2023-04-25T08:02:55;2.60;;;2.40;;
13463;SDS011;6804;48.774;9.174;2023-04-25T08:05:23;2.80;;;2.50;;
13463;SDS011;6804;48.774;9.174;2023-04-25T08:07:52;2.97;;;2.67;;
13463;SDS011;6804;48.774;9.174;2023-04-25T08:10:22;3.43;;;2.30;;
13463;SDS011;6804;48.774;9.174;2023-04-25T08:12:58;3.83;;;2.73;;
13463;SDS011;6804;48.774;9.174;2023-04-25T08:15:25;2.83;;;2.43;;
13463;SDS011;6804;48.774;9.174;2023-04-25T08:17:53;3.27;;;2.60;;
13463;SDS011;6804;48.774;9.174;2023-04-25T08:20:20;3.17;;;2.77;;
13463;SDS011;6804;48.774;9.174;2023-04-25T08:22:48;2.70;;;2.50;;
13463;SDS011;6804;48.774;9.174;2023-04-25T08:25:15;3.53;;;3.00;;
13463;SDS011;6804;48.774;9.174;2023-04-25T08:27:43;4.07;;;3.20;;
13463;SDS011;6804;48.774;9.174;2023-04-25T08:30:15;4.70;;;3.30;;
13463;SDS011;6804;48.774;9.174;2023-04-25T08:32:43;3.50;;;2.83;;
13463;SDS011;6804;48.774;9.174;2023-04-25T08:35:13;3.60;;;3.30;;
13463;SDS011;6804;48.774;9.174;2023-04-25T08:37:43;4.30;;;3.57;;
13463;SDS011;6804;48.774;9.174;2023-04-25T08:40:11;3.63;;;2.87;;
13463;SDS011;6804;48.774;9.174;2023-04-25T08:42:43;4.70;;;3.10;;
13463;SDS011;6804;48.774;9.174;2023-04-25T08:45:12;4.40;;;3.27;;
13463;SDS011;6804;48.774;9.174;2023-04-25T08:47:44;3.93;;;2.87;;
13463;SDS011;6804;48.774;9.174;2023-04-25T08:50:16;5.23;;;3.23;;
13463;SDS011;6804;48.774;9.174;2023-04-25T08:52:46;4.03;;;3.10;;
13463;SDS011;6804;48.774;9.174;2023-04-25T08:55:17;5.70;;;3.70;;
13463;SDS011;6804;48.774;9.174;2023-04-25T08:57:46;4.90;;;3.30;;
13463;SDS011;6804;48.774;9.174;2023-04-25T09:00:25;4.40;;;3.20;;
13463;SDS011;6804;48.774;9.174;2023-04-25T09:02:53;5.50;;;3.70;;
13463;SDS011;6804;48.774;9.174;2023-04-25T09:05:24;5.60;;;3.37;;
13463;SDS011;6804;48.774;9.174;2023-04-25T09:07:55;5.33;;;3.50;;
13463;SDS011;6804;48.774;9.174;2023-04-25T09:10:29;4.90;;;3.00;;
13463;SDS011;6804;48.774;9.174;2023-04-25T09:15:51;3.50;;;2.70;;
13463;SDS011;6804;48.774;9.174;2023-04-25T09:18:23;5.93;;;3.30;;
13463;SDS011;6804;48.774;9.174;2023-04-25T09:21:04;4.93;;;3.40;;
13463;SDS011;6804;48.774;9.174;2023-04-25T09:23:38;2.97;;;2.63;;
13463;SDS011;6804;48.774;9.174;2023-04-25T09:26:07;5.13;;;2.90;;
13463;SDS011;6804;48.774;9.174;2023-04-25T09:28:35;4.00;;;2.90;;
13463;SDS011;6804;48.774;9.174;2023-04-25T09:31:05;4.20;;;3.80;;
13463;SDS011;6804;48.774;9.174;2023-04-25T09:33:35;3.70;;;2.90;;
13463;SDS011;6804;48.774;9.174;2023-04-25T09:36:04;4.00;;;3.20;;
13463;SDS011;6804;48.774;9.174;2023-04-25T09:38:39;3.83;;;3.43;;
13463;SDS011;6804;48.774;9.174;2023-04-25T09:41:08;3.47;;;3.17;;
13463;SDS011;6804;48.774;9.174;2023-04-25T09:43:39;4.40;;;3.20;;
13463;SDS011;6804;48.774;9.174;2023-04-25T09:46:13;4.90;;;3.43;;
13463;SDS011;6804;48.774;9.174;2023-04-25T09:48:49;4.27;;;2.67;;
13463;SDS011;6804;48.774;9.174;2023-04-25T09:51:19;2.50;;;2.30;;
13463;SDS011;6804;48.774;9.174;2023-04-25T09:53:46;2.30;;;2.07;;
13463;SDS011;6804;48.774;9.174;2023-04-25T09:56:17;2.10;;;1.90;;
13463;SDS011;6804;48.774;9.174;2023-04-25T09:58:46;5.33;;;2.90;;
13463;SDS011;6804;48.774;9.174;2023-04-25T10:01:17;5.07;;;2.90;;
13463;SDS011;6804;48.774;9.174;2023-04-25T10:03:47;2.73;;;2.47;;
13463;SDS011;6804;48.774;9.174;2023-04-25T10:06:19;3.17;;;2.73;;
13463;SDS011;6804;48.774;9.174;2023-04-25T10:08:50;3.03;;;2.20;;
13463;SDS011;6804;48.774;9.174;2023-04-25T10:11:21;2.43;;;2.10;;
13463;SDS011;6804;48.774;9.174;2023-04-25T10:13:50;2.00;;;1.50;;
13463;SDS011;6804;48.774;9.174;2023-04-25T10:16:22;1.77;;;1.67;;
13463;SDS011;6804;48.774;9.174;2023-04-25T10:18:51;2.83;;;2.07;;
13463;SDS011;6804;48.774;9.174;2023-04-25T10:21:21;2.87;;;1.73;;
13463;SDS011;6804;48.774;9.174;2023-04-25T10:23:49;4.23;;;2.23;;
13463;SDS011;6804;48.774;9.174;2023-04-25T10:26:17;2.43;;;2.20;;
13463;SDS011;6804;48.774;9.174;2023-04-25T10:28:54;1.30;;;1.20;;
13463;SDS011;6804;48.774;9.174;2023-04-25T10:31:26;2.00;;;1.73;;
13463;SDS011;6804;48.774;9.174;2023-04-25T10:33:58;2.27;;;1.80;;
13463;SDS011;6804;48.774;9.174;2023-04-25T10:36:30;2.20;;;1.90;;
13463;SDS011;6804;48.774;9.174;2023-04-25T10:39:02;2.70;;;1.60;;
13463;SDS011;6804;48.774;9.174;2023-04-25T10:41:45;1.70;;;1.10;;
13463;SDS011;6804;48.774;9.174;2023-04-25T10:44:14;1.50;;;1.13;;
13463;SDS011;6804;48.774;9.174;2023-04-25T10:46:45;2.07;;;1.30;;
13463;SDS011;6804;48.774;9.174;2023-04-25T10:49:27;2.17;;;1.70;;
13463;SDS011;6804;48.774;9.174;2023-04-25T10:52:15;1.90;;;1.30;;
13463;SDS011;6804;48.774;9.174;2023-04-25T10:54:48;2.70;;;2.10;;
13463;SDS011;6804;48.774;9.174;2023-04-25T10:57:28;3.43;;;2.43;;
13463;SDS011;6804;48.774;9.174;2023-04-25T11:00:04;3.00;;;2.70;;
13463;SDS011;6804;48.774;9.174;2023-04-25T11:02:47;3.20;;;2.60;;
13463;SDS011;6804;48.774;9.174;2023-04-25T11:05:26;2.70;;;2.50;;
13463;SDS011;6804;48.774;9.174;2023-04-25T11:07:59;3.07;;;2.70;;
13463;SDS011;6804;48.774;9.174;2023-04-25T11:10:28;3.53;;;2.33;;
13463;SDS011;6804;48.774;9.174;2023-04-25T11:12:58;3.10;;;2.20;;
13463;SDS011;6804;48.774;9.174;2023-04-25T11:15:29;3.20;;;2.67;;
13463;SDS011;6804;48.774;9.174;2023-04-25T11:17:59;2.83;;;2.40;;
13463;SDS011;6804;48.774;9.174;2023-04-25T11:20:32;2.33;;;2.13;;
13463;SDS011;6804;48.774;9.174;2023-04-25T11:23:00;2.83;;;2.63;;
13463;SDS011;6804;48.774;9.174;2023-04-25T11:25:28;2.07;;;1.80;;
13463;SDS011;6804;48.774;9.174;2023-04-25T11:27:59;4.77;;;2.50;;
13463;SDS011;6804;48.774;9.174;2023-04-25T11:30:28;2.47;;;2.13;;
13463;SDS011;6804;48.774;9.174;2023-04-25T11:33:01;2.60;;;1.90;;
13463;SDS011;6804;48.774;9.174;2023-04-25T11:35:29;2.90;;;1.87;;
13463;SDS011;6804;48.774;9.174;2023-04-25T11:38:00;2.10;;;1.90;;
13463;SDS011;6804;48.774;9.174;2023-04-25T11:40:28;2.77;;;2.00;;
13463;SDS011;6804;48.774;9.174;2023-04-25T11:42:59;5.27;;;3.93;;
13463;SDS011;6804;48.774;9.174;2023-04-25T11:45:33;2.20;;;1.73;;
13463;SDS011;6804;48.774;9.174;2023-04-25T11:48:03;2.40;;;1.80;;
13463;SDS011;6804;48.774;9.174;2023-04-25T11:50:31;2.30;;;2.10;;
13463;SDS011;6804;48.774;9.174;2023-04-25T11:53:04;3.53;;;2.20;;
13463;SDS011;6804;48.774;9.174;2023-04-25T11:55:34;2.70;;;2.27;;
13463;SDS011;6804;48.774;9.174;2023-04-25T11:58:02;3.67;;;2.30;;
13463;SDS011;6804;48.774;9.174;2023-04-25T12:00:33;2.93;;;2.60;;
13463;SDS011;6804;48.774;9.174;2023-04-25T12:03:04;4.07;;;2.50;;
13463;SDS011;6804;48.774;9.174;2023-04-25T12:05:34;2.67;;;2.47;;
13463;SDS011;6804;48.774;9.174;2023-04-25T12:08:09;3.53;;;2.70;;
13463;SDS011;6804;48.774;9.174;2023-04-25T12:10:39;3.40;;;2.80;;
13463;SDS011;6804;48.774;9.174;2023-04-25T12:13:20;4.73;;;3.07;;
13463;SDS011;6804;48.774;9.174;2023-04-25T12:15:54;2.50;;;2.30;;
13463;SDS011;6804;48.774;9.174;2023-04-25T12:18:26;3.10;;;2.80;;
13463;SDS011;6804;48.774;9.174;2023-04-25T12:20:54;4.30;;;3.20;;
13463;SDS011;6804;48.774;9.174;2023-04-25T12:23:25;4.70;;;3.60;;
13463;SDS011;6804;48.774;9.174;2023-04-25T12:25:54;4.57;;;3.17;;
13463;SDS011;6804;48.774;9.174;2023-04-25T12:28:23;5.50;;;3.87;;
13463;SDS011;6804;48.774;9.174;2023-04-25T12:30:56;3.13;;;2.63;;
13463;SDS011;6804;48.774;9.174;2023-04-25T12:33:27;4.23;;;3.07;;
13463;SDS011;6804;48.774;9.174;2023-04-25T12:35:56;3.90;;;3.17;;
13463;SDS011;6804;48.774;9.174;2023-04-25T12:38:25;5.00;;;3.67;;
13463;SDS011;6804;48.774;9.174;2023-04-25T12:40:55;5.17;;;3.83;;
13463;SDS011;6804;48.774;9.174;2023-04-25T12:43:23;6.40;;;4.10;;
13463;SDS011;6804;48.774;9.174;2023-04-25T12:45:55;4.37;;;3.40;;
13463;SDS011;6804;48.774;9.174;2023-04-25T12:48:23;5.37;;;3.50;;
13463;SDS011;6804;48.774;9.174;2023-04-25T12:50:55;3.83;;;3.43;;
13463;SDS011;6804;48.774;9.174;2023-04-25T12:53:23;4.93;;;3.87;;
13463;SDS011;6804;48.774;9.174;2023-04-25T12:55:51;4.83;;;4.03;;
13463;SDS011;6804;48.774;9.174;2023-04-25T12:58:21;5.47;;;3.90;;
13463;SDS011;6804;48.774;9.174;2023-04-25T13:00:52;4.00;;;3.50;;
13463;SDS011;6804;48.774;9.174;2023-04-25T13:03:20;5.57;;;4.20;;
13463;SDS011;6804;48.774;9.174;2023-04-25T13:05:48;3.90;;;3.53;;
13463;SDS011;6804;48.774;9.174;2023-04-25T13:08:19;4.90;;;3.80;;
13463;SDS011;6804;48.774;9.174;2023-04-25T13:10:47;5.33;;;4.40;;
13463;SDS011;6804;48.774;9.174;2023-04-25T13:13:15;5.10;;;3.50;;
13463;SDS011;6804;48.774;9.174;2023-04-25T13:15:46;3.90;;;3.43;;
13463;SDS011;6804;48.774;9.174;2023-04-25T13:18:18;4.67;;;3.93;;
13463;SDS011;6804;48.774;9.174;2023-04-25T13:20:46;5.40;;;4.43;;
13463;SDS011;6804;48.774;9.174;2023-04-25T13:23:14;5.17;;;4.23;;
13463;SDS011;6804;48.774;9.174;2023-04-25T13:25:44;5.10;;;4.30;;
13463;SDS011;6804;48.774;9.174;2023-04-25T13:28:12;5.63;;;4.40;;
13463;SDS011;6804;48.774;9.174;2023-04-25T13:30:43;4.90;;;4.40;;
13463;SDS011;6804;48.774;9.174;2023-04-25T13:33:13;5.37;;;4.57;;
13463;SDS011;6804;48.774;9.174;2023-04-25T13:35:44;6.07;;;5.40;;
13463;SDS011;6804;48.774;9.174;2023-04-25T13:38:19;7.07;;;4.80;;
13463;SDS011;6804;48.774;9.174;2023-04-25T13:40:49;7.13;;;5.27;;
13463;SDS011;6804;48.774;9.174;2023-04-25T13:43:18;6.10;;;4.13;;
13463;SDS011;6804;48.774;9.174;2023-04-25T13:45:47;5.63;;;4.73;;
13463;SDS011;6804;48.774;9.174;2023-04-25T13:48:17;7.33;;;5.40;;
13463;SDS011;6804;48.774;9.174;2023-04-25T13:50:48;6.43;;;5.83;;
13463;SDS011;6804;48.774;9.174;2023-04-25T13:53:16;7.90;;;6.23;;
13463;SDS011;6804;48.774;9.174;2023-04-25T13:55:44;7.40;;;5.83;;
13463;SDS011;6804;48.774;9.174;2023-04-25T13:58:17;6.13;;;5.53;;
13463;SDS011;6804;48.774;9.174;2023-04-25T14:00:45;7.77;;;6.23;;
13463;SDS011;6804;48.774;9.174;2023-04-25T14:03:13;6.10;;;5.50;;
13463;SDS011;6804;48.774;9.174;2023-04-25T14:05:43;6.83;;;5.40;;
13463;SDS011;6804;48.774;9.174;2023-04-25T14:08:15;8.97;;;6.07;;
13463;SDS011;6804;48.774;9.174;2023-04-25T14:10:47;8.30;;;6.40;;
13463;SDS011;6804;48.774;9.174;2023-04-25T14:13:17;7.03;;;5.67;;
13463;SDS011;6804;48.774;9.174;2023-04-25T14:15:45;6.17;;;5.57;;
13463;SDS011;6804;48.774;9.174;2023-04-25T14:18:13;7.30;;;5.50;;
13463;SDS011;6804;48.774;9.174;2023-04-25T14:20:43;6.60;;;5.50;;
13463;SDS011;6804;48.774;9.174;2023-04-25T14:23:13;6.33;;;5.27;;
13463;SDS011;6804;48.774;9.174;2023-04-25T14:25:41;7.20;;;5.23;;
13463;SDS011;6804;48.774;9.174;2023-04-25T14:28:09;6.63;;;5.17;;
13463;SDS011;6804;48.774;9.174;2023-04-25T14:30:38;5.07;;;4.53;;
13463;SDS011;6804;48.774;9.174;2023-04-25T14:33:06;4.80;;;3.93;;
13463;SDS011;6804;48.774;9.174;2023-04-25T14:35:34;5.37;;;4.10;;
13463;SDS011;6804;48.774;9.174;2023-04-25T14:38:07;5.60;;;4.50;;
13463;SDS011;6804;48.774;9.174;2023-04-25T14:40:38;4.37;;;3.70;;
13463;SDS011;6804;48.774;9.174;2023-04-25T14:43:11;4.00;;;3.27;;
13463;SDS011;6804;48.774;9.174;2023-04-25T14:45:40;5.63;;;3.40;;
13463;SDS011;6804;48.774;9.174;2023-04-25T14:48:08;5.27;;;3.00;;
13463;SDS011;6804;48.774;9.174;2023-04-25T14:50:36;5.40;;;3.60;;
13463;SDS011;6804;48.774;9.174;2023-04-25T14:53:04;3.40;;;3.10;;
13463;SDS011;6804;48.774;9.174;2023-04-25T14:55:35;4.10;;;3.70;;
13463;SDS011;6804;48.774;9.174;2023-04-25T14:58:04;3.50;;;3.17;;
13463;SDS011;6804;48.774;9.174;2023-04-25T15:00:32;3.53;;;3.20;;
13463;SDS011;6804;48.774;9.174;2023-04-25T15:03:01;4.27;;;3.80;;
13463;SDS011;6804;48.774;9.174;2023-04-25T15:05:29;4.70;;;3.57;;
13463;SDS011;6804;48.774;9.174;2023-04-25T15:07:59;4.33;;;3.30;;
13463;SDS011;6804;48.774;9.174;2023-04-25T15:10:27;4.00;;;3.60;;
13463;SDS011;6804;48.774;9.174;2023-04-25T15:12:56;5.03;;;3.67;;
13463;SDS011;6804;48.774;9.174;2023-04-25T15:15:27;3.97;;;3.67;;
13463;SDS011;6804;48.774;9.174;2023-04-25T15:18:02;5.17;;;4.20;;